Terminal Aerodrome Forecast
Issued by NWS Wilmington, OH

Current Version | Previous Version | Graphics & Text | Print | Product List | Glossary On
Versions: 1 2 3 4 5 6 7 8 9 10 11 12 13 14 15 16 17 18 19 20 21 22 23 24 25 26
266
FTUS41 KILN 302051 AAA
TAFDAY
TAF AMD
KDAY 302051Z 3021/0118 24012KT P6SM -SHRA VCSH BKN035
     FM302200 26010KT P6SM SCT080
     FM010200 26010KT P6SM OVC025
     FM011500 25012G20KT P6SM BKN025=

USA.gov is the U.S. government's official web portal to all federal, state and local government web resources and services.